Time;durP1;ratioP1;P1;durP2;ratioP2;P2;SDS_P1;SDS_P2;PMS_P1;PMS_P2;Temp;Humidity;BMP_temperature;BMP_pressure;BME280_temperature;BME280_humidity;BME280_pressure;Samples;Min_cycle;Max_cycle;Signal;HPM_P1;HPM_P2
2020/12/02 00:00:18;;;;;;;16.20;7.53;;;4.00;90.90;;;;;;5048812;28;20128;-72
2020/12/02 00:03:01;;;;;;;18.33;8.30;;;4.00;90.80;;;;;;5049883;28;20385;-72
2020/12/02 00:05:28;;;;;;;16.70;8.30;;;4.00;90.90;;;;;;5050114;28;20025;-72
2020/12/02 00:08:12;;;;;;;16.23;7.47;;;4.00;90.80;;;;;;5050880;28;20025;-71
2020/12/02 00:10:38;;;;;;;19.43;8.17;;;4.00;90.90;;;;;;5048940;28;20036;-72
2020/12/02 00:13:34;;;;;;;17.50;8.23;;;3.90;90.80;;;;;;5050926;28;20036;-72
2020/12/02 00:16:01;;;;;;;17.10;8.73;;;4.00;90.80;;;;;;5018614;28;20124;-72
2020/12/02 00:18:28;;;;;;;22.70;8.97;;;4.00;90.70;;;;;;5043117;28;20040;-72
2020/12/02 00:20:54;;;;;;;19.03;8.27;;;3.90;90.70;;;;;;5059516;28;20056;-72
2020/12/02 00:23:20;;;;;;;18.30;8.27;;;3.90;90.70;;;;;;5090454;28;20024;-72
2020/12/02 00:25:46;;;;;;;20.10;8.37;;;3.90;90.60;;;;;;5091173;28;20105;-72
2020/12/02 00:28:13;;;;;;;17.10;8.70;;;3.90;90.50;;;;;;5091184;28;20503;-72
2020/12/02 00:30:40;;;;;;;18.07;8.20;;;3.90;90.60;;;;;;5092142;28;20028;-72
2020/12/02 00:33:21;;;;;;;16.77;8.00;;;3.90;90.50;;;;;;5091921;28;20060;-72
2020/12/02 00:35:47;;;;;;;15.70;8.20;;;3.90;90.50;;;;;;5077144;28;20020;-72
2020/12/02 00:38:14;;;;;;;19.30;8.17;;;3.90;90.30;;;;;;5092247;28;20024;-75
2020/12/02 00:40:44;;;;;;;18.93;8.47;;;3.90;90.30;;;;;;5092155;28;20044;-72
2020/12/02 00:43:12;;;;;;;19.97;8.40;;;3.90;90.20;;;;;;5091093;28;20074;-72
2020/12/02 00:45:38;;;;;;;17.37;8.07;;;3.90;90.10;;;;;;5073819;28;20373;-72
2020/12/02 00:48:09;;;;;;;15.13;7.60;;;3.80;90.00;;;;;;5092269;28;20494;-72
2020/12/02 00:50:35;;;;;;;15.77;8.05;;;3.80;90.00;;;;;;5091832;28;20032;-72
2020/12/02 00:53:05;;;;;;;16.60;7.87;;;3.80;90.00;;;;;;5091038;28;20461;-72
2020/12/02 00:55:30;;;;;;;18.63;8.60;;;3.80;90.00;;;;;;5090349;28;20093;-72
2020/12/02 00:57:57;;;;;;;15.80;7.90;;;3.80;89.80;;;;;;5094643;28;20461;-72
2020/12/02 01:00:27;;;;;;;18.03;8.80;;;3.80;89.80;;;;;;5093883;28;20543;-73
2020/12/02 01:03:25;;;;;;;17.43;8.13;;;3.80;89.70;;;;;;5094877;28;20111;-72
2020/12/02 01:05:52;;;;;;;15.60;8.07;;;3.70;89.90;;;;;;5080089;28;20020;-72
2020/12/02 01:08:31;;;;;;;16.73;7.80;;;3.80;90.00;;;;;;5095432;28;20035;-72
2020/12/02 01:11:21;;;;;;;16.47;7.57;;;3.70;89.60;;;;;;5094601;28;20028;-72
2020/12/02 01:13:52;;;;;;;19.47;8.07;;;3.70;89.50;;;;;;5079511;28;20024;-72
2020/12/02 01:16:24;;;;;;;20.00;8.60;;;3.80;89.50;;;;;;5094204;28;20427;-72
2020/12/02 01:18:50;;;;;;;18.37;8.40;;;3.70;89.50;;;;;;5096003;28;20025;-72
2020/12/02 01:21:38;;;;;;;19.37;8.97;;;3.70;89.80;;;;;;5094881;28;20059;-72
2020/12/02 01:24:09;;;;;;;16.83;8.37;;;3.70;89.10;;;;;;5085763;28;20109;-72
2020/12/02 01:26:44;;;;;;;19.50;8.53;;;3.70;89.40;;;;;;5093797;28;20221;-72
2020/12/02 01:29:17;;;;;;;19.87;8.40;;;3.70;89.50;;;;;;5094459;28;20422;-72
2020/12/02 01:31:53;;;;;;;19.73;8.77;;;3.70;89.40;;;;;;5087281;28;20020;-72
2020/12/02 01:34:20;;;;;;;18.10;8.37;;;3.70;89.60;;;;;;5093751;28;20107;-72
2020/12/02 01:37:18;;;;;;;19.47;9.37;;;3.70;89.40;;;;;;5095333;28;20495;-72
2020/12/02 01:40:01;;;;;;;17.83;8.67;;;3.60;89.60;;;;;;5078404;28;20473;-72
2020/12/02 01:42:27;;;;;;;17.63;8.10;;;3.60;89.70;;;;;;5093341;28;20035;-72
2020/12/02 01:44:54;;;;;;;20.53;9.20;;;3.60;89.70;;;;;;5093584;28;20028;-72
2020/12/02 01:47:51;;;;;;;17.60;9.00;;;3.60;89.60;;;;;;5094336;28;20032;-72
2020/12/02 01:50:33;;;;;;;19.40;9.20;;;3.60;89.60;;;;;;5093399;28;20109;-73
2020/12/02 01:53:10;;;;;;;18.77;8.73;;;3.70;89.50;;;;;;5094040;28;20461;-72
2020/12/02 01:55:42;;;;;;;17.97;9.07;;;3.70;89.40;;;;;;5094520;28;20024;-72
2020/12/02 01:58:16;;;;;;;22.40;9.13;;;3.60;89.40;;;;;;5093809;28;20035;-72
2020/12/02 02:00:51;;;;;;;18.90;8.97;;;3.60;89.40;;;;;;5093559;28;20133;-72
2020/12/02 02:03:18;;;;;;;21.00;9.53;;;3.60;89.40;;;;;;5093221;28;20028;-72
2020/12/02 02:05:48;;;;;;;18.13;8.17;;;3.60;89.80;;;;;;5095145;28;20027;-71
2020/12/02 02:08:15;;;;;;;18.73;8.83;;;3.60;89.40;;;;;;5092741;28;20051;-72
2020/12/02 02:10:45;;;;;;;20.80;9.10;;;3.50;89.30;;;;;;5093086;28;20090;-72
2020/12/02 02:13:28;;;;;;;20.50;8.93;;;3.60;89.50;;;;;;5093402;28;20031;-72
2020/12/02 02:16:11;;;;;;;18.10;9.30;;;3.60;89.50;;;;;;5080436;28;20027;-72
2020/12/02 02:18:37;;;;;;;17.10;8.40;;;3.50;89.30;;;;;;5093985;28;20028;-72
2020/12/02 02:21:15;;;;;;;20.40;9.27;;;3.60;89.40;;;;;;5093057;28;20408;-72
2020/12/02 02:23:41;;;;;;;19.57;8.67;;;3.60;89.40;;;;;;5078519;28;20038;-72
2020/12/02 02:26:13;;;;;;;20.73;9.37;;;3.50;89.40;;;;;;5092941;28;20061;-73
2020/12/02 02:28:42;;;;;;;21.33;9.07;;;3.50;89.30;;;;;;5092112;28;20024;-72
2020/12/02 02:31:13;;;;;;;20.93;9.30;;;3.50;89.60;;;;;;5094151;28;20041;-72
2020/12/02 02:33:40;;;;;;;20.73;9.27;;;3.60;89.50;;;;;;5077318;28;20024;-72
2020/12/02 02:36:10;;;;;;;21.20;9.77;;;3.50;89.20;;;;;;5092913;28;20527;-72
2020/12/02 02:38:36;;;;;;;17.73;8.03;;;3.60;89.30;;;;;;5092271;28;20077;-72
2020/12/02 02:41:02;;;;;;;19.73;9.20;;;3.60;89.40;;;;;;5093878;28;20031;-72
2020/12/02 02:43:27;;;;;;;18.40;8.67;;;3.50;89.20;;;;;;5092214;28;20036;-72
2020/12/02 02:45:53;;;;;;;21.53;9.43;;;3.60;89.20;;;;;;5092807;28;20400;-72
2020/12/02 02:48:19;;;;;;;20.70;8.90;;;3.60;89.00;;;;;;5092217;28;20032;-73
2020/12/02 02:50:44;;;;;;;21.87;9.03;;;3.50;88.90;;;;;;5092325;28;20377;-72
2020/12/02 02:53:17;;;;;;;20.63;8.70;;;3.50;89.00;;;;;;5092601;28;20024;-72
2020/12/02 02:55:43;;;;;;;21.00;9.57;;;3.50;89.00;;;;;;5076505;28;20020;-72
2020/12/02 02:58:09;;;;;;;23.10;10.27;;;3.50;88.90;;;;;;5092564;28;20035;-72
2020/12/02 03:00:36;;;;;;;19.27;8.60;;;3.50;89.00;;;;;;5091589;28;20420;-72
2020/12/02 03:03:02;;;;;;;19.97;8.63;;;3.50;88.90;;;;;;5092161;28;20024;-72
2020/12/02 03:05:29;;;;;;;22.97;9.57;;;3.50;89.00;;;;;;5092552;28;20039;-72
2020/12/02 03:07:58;;;;;;;20.63;8.43;;;3.50;88.90;;;;;;5093436;28;20396;-72
2020/12/02 03:10:28;;;;;;;21.87;9.00;;;3.50;89.00;;;;;;5091630;28;20024;-72
2020/12/02 03:12:58;;;;;;;21.83;9.23;;;3.50;88.80;;;;;;5093632;28;20020;-72
2020/12/02 03:15:24;;;;;;;19.50;9.03;;;3.50;88.80;;;;;;5092983;28;20668;-72
2020/12/02 03:17:49;;;;;;;21.90;9.00;;;3.50;88.80;;;;;;5093166;28;20020;-72
2020/12/02 03:20:24;;;;;;;21.17;8.83;;;3.50;88.70;;;;;;5090478;28;20571;-74
2020/12/02 03:22:50;;;;;;;20.73;9.30;;;3.50;88.90;;;;;;5091886;28;20118;-72
2020/12/02 03:25:24;;;;;;;24.60;9.77;;;3.40;88.80;;;;;;5091560;28;20116;-75
2020/12/02 03:27:51;;;;;;;21.33;9.57;;;3.40;88.60;;;;;;5092208;28;20016;-72
2020/12/02 03:30:17;;;;;;;25.60;10.10;;;3.40;88.80;;;;;;5092327;28;20028;-74
2020/12/02 03:32:44;;;;;;;19.93;8.93;;;3.40;88.80;;;;;;5091782;28;20415;-72
2020/12/02 03:35:09;;;;;;;20.73;9.37;;;3.40;88.90;;;;;;5092867;28;20020;-72
2020/12/02 03:37:35;;;;;;;22.23;10.50;;;3.50;88.80;;;;;;5091021;28;20032;-72
2020/12/02 03:40:03;;;;;;;23.73;9.87;;;3.40;88.70;;;;;;5092661;28;20036;-72
2020/12/02 03:42:29;;;;;;;21.70;9.23;;;3.50;88.60;;;;;;5091023;28;20031;-72
2020/12/02 03:44:54;;;;;;;23.97;9.47;;;3.50;88.60;;;;;;5092888;28;20024;-72
2020/12/02 03:47:20;;;;;;;19.47;8.87;;;3.50;88.50;;;;;;5091077;28;20461;-72
2020/12/02 03:49:45;;;;;;;23.10;9.63;;;3.50;88.60;;;;;;5091244;28;20080;-71
2020/12/02 03:52:11;;;;;;;24.20;9.57;;;3.50;88.30;;;;;;5092902;28;20027;-71
2020/12/02 03:54:37;;;;;;;21.03;9.53;;;3.50;88.30;;;;;;5091987;28;20480;-72
2020/12/02 03:57:03;;;;;;;23.23;9.97;;;3.50;88.20;;;;;;5091085;28;20038;-72
2020/12/02 03:59:29;;;;;;;23.17;10.13;;;3.50;88.50;;;;;;5090829;28;20061;-72
2020/12/02 04:01:55;;;;;;;21.70;9.30;;;3.50;88.50;;;;;;5091440;28;20020;-72
2020/12/02 04:04:21;;;;;;;22.57;10.03;;;3.50;88.70;;;;;;5090765;28;20490;-74
2020/12/02 04:06:47;;;;;;;23.27;10.13;;;3.50;88.40;;;;;;5091388;28;20055;-72
2020/12/02 04:09:13;;;;;;;24.37;9.97;;;3.50;88.30;;;;;;5091329;28;20060;-72
2020/12/02 04:11:38;;;;;;;23.00;9.83;;;3.50;88.10;;;;;;5090798;28;20028;-72
2020/12/02 04:14:04;;;;;;;21.47;10.20;;;3.40;87.90;;;;;;5092445;28;20024;-72
2020/12/02 04:16:30;;;;;;;28.23;10.63;;;3.50;88.20;;;;;;5091721;28;20019;-72
2020/12/02 04:18:57;;;;;;;25.07;10.63;;;3.50;88.20;;;;;;5091105;28;20488;-72
2020/12/02 04:21:24;;;;;;;26.03;11.47;;;3.50;88.20;;;;;;5090134;28;20052;-72
2020/12/02 04:23:53;;;;;;;22.53;10.13;;;3.50;88.10;;;;;;5091165;28;20020;-72
2020/12/02 04:26:19;;;;;;;25.00;10.43;;;3.50;88.20;;;;;;5090548;28;20025;-72
2020/12/02 04:28:44;;;;;;;28.77;11.60;;;3.50;88.00;;;;;;5090991;28;20024;-72
2020/12/02 04:31:10;;;;;;;29.00;11.80;;;3.50;88.00;;;;;;5090295;28;20032;-72
2020/12/02 04:33:36;;;;;;;28.10;11.47;;;3.50;88.10;;;;;;5091445;28;20067;-71
2020/12/02 04:36:01;;;;;;;23.83;10.87;;;3.50;88.10;;;;;;5092156;28;20103;-72
2020/12/02 04:38:27;;;;;;;25.80;10.07;;;3.50;88.30;;;;;;5091571;28;20024;-72
2020/12/02 04:40:53;;;;;;;25.43;11.07;;;3.50;88.30;;;;;;5090909;28;20035;-71
2020/12/02 04:43:36;;;;;;;28.23;11.07;;;3.60;88.30;;;;;;5091647;28;20031;-72
2020/12/02 04:46:10;;;;;;;26.30;11.63;;;3.60;88.00;;;;;;5092256;28;20028;-72
2020/12/02 04:48:35;;;;;;;29.33;11.60;;;3.50;88.20;;;;;;5090219;28;20706;-72
2020/12/02 04:51:06;;;;;;;28.23;11.30;;;3.50;88.10;;;;;;5090809;28;20107;-71
2020/12/02 04:53:36;;;;;;;26.73;11.47;;;3.60;88.40;;;;;;5091828;28;20079;-71
2020/12/02 04:56:03;;;;;;;24.90;11.53;;;3.50;88.10;;;;;;5090890;28;20073;-72
2020/12/02 04:58:37;;;;;;;30.03;11.27;;;3.50;88.10;;;;;;5091264;28;20146;-71
2020/12/02 05:01:18;;;;;;;28.93;11.90;;;3.50;88.20;;;;;;5091517;28;20028;-74
2020/12/02 05:04:06;;;;;;;25.00;10.87;;;3.50;88.10;;;;;;5076329;28;20048;-74
2020/12/02 05:06:36;;;;;;;28.47;11.37;;;3.50;88.20;;;;;;5090108;28;20575;-73
2020/12/02 05:09:05;;;;;;;26.40;10.97;;;3.50;88.00;;;;;;5090693;28;20052;-73
2020/12/02 05:11:30;;;;;;;27.77;11.37;;;3.50;88.10;;;;;;5090062;28;20020;-73
2020/12/02 05:14:02;;;;;;;25.93;10.83;;;3.50;88.10;;;;;;5090665;28;20111;-73
2020/12/02 05:16:28;;;;;;;26.60;11.05;;;3.60;88.10;;;;;;5089906;28;20024;-74
2020/12/02 05:19:03;;;;;;;24.10;11.20;;;3.50;87.90;;;;;;5092043;28;20028;-74
2020/12/02 05:21:32;;;;;;;28.57;11.90;;;3.50;87.70;;;;;;5090761;28;20052;-73
2020/12/02 05:24:10;;;;;;;26.23;11.73;;;3.40;87.80;;;;;;5090575;28;20040;-74
2020/12/02 05:26:39;;;;;;;26.17;11.00;;;3.40;88.10;;;;;;5090089;28;20036;-74
2020/12/02 05:29:22;;;;;;;22.50;10.10;;;3.50;88.30;;;;;;5090677;28;20028;-73
2020/12/02 05:31:49;;;;;;;25.37;10.13;;;3.50;88.00;;;;;;5084433;28;20012;-74
2020/12/02 05:34:17;;;;;;;23.40;10.43;;;3.60;87.80;;;;;;5092040;28;20111;-73
2020/12/02 05:36:49;;;;;;;22.57;10.47;;;3.50;87.60;;;;;;5091568;28;20028;-74
2020/12/02 05:39:38;;;;;;;24.30;10.60;;;3.50;87.80;;;;;;5090448;28;20384;-73
2020/12/02 05:42:13;;;;;;;23.37;10.37;;;3.50;87.60;;;;;;5090658;28;20389;-73
2020/12/02 05:44:42;;;;;;;23.50;10.30;;;3.50;87.60;;;;;;5092745;28;20107;-73
2020/12/02 05:47:15;;;;;;;24.20;10.57;;;3.50;87.50;;;;;;5093952;28;20027;-72
2020/12/02 05:49:44;;;;;;;23.43;10.23;;;3.50;87.50;;;;;;5077648;28;20115;-73
2020/12/02 05:52:19;;;;;;;20.23;9.43;;;3.50;88.30;;;;;;5093904;28;20488;-74
2020/12/02 05:54:47;;;;;;;22.43;10.63;;;3.50;87.60;;;;;;5095087;28;20027;-74
2020/12/02 05:57:16;;;;;;;26.67;11.20;;;3.50;87.40;;;;;;5093624;28;20059;-73
2020/12/02 05:59:42;;;;;;;22.53;10.10;;;3.50;87.30;;;;;;5094660;28;20380;-74
2020/12/02 06:02:08;;;;;;;20.43;9.53;;;3.50;87.40;;;;;;5093671;28;20465;-73
2020/12/02 06:04:34;;;;;;;22.63;9.87;;;3.50;87.40;;;;;;5094281;28;20027;-74
2020/12/02 06:06:59;;;;;;;22.00;10.17;;;3.50;87.30;;;;;;5094540;28;20028;-74
2020/12/02 06:09:44;;;;;;;21.00;10.33;;;3.60;87.30;;;;;;5093031;28;20065;-74
2020/12/02 06:12:38;;;;;;;20.87;10.20;;;3.60;87.10;;;;;;5093547;28;20028;-74
2020/12/02 06:15:16;;;;;;;20.33;9.17;;;3.60;87.20;;;;;;5093390;28;20044;-74
2020/12/02 06:17:41;;;;;;;22.90;9.23;;;3.50;87.20;;;;;;5078801;28;20023;-74
2020/12/02 06:20:07;;;;;;;22.10;10.47;;;3.60;87.20;;;;;;5093355;28;20057;-73
2020/12/02 06:22:51;;;;;;;20.77;9.07;;;3.60;87.10;;;;;;5092416;28;20059;-73
2020/12/02 06:25:47;;;;;;;20.13;9.40;;;3.50;87.10;;;;;;5094030;28;20024;-74
2020/12/02 06:28:29;;;;;;;20.27;9.57;;;3.50;87.40;;;;;;5093427;28;20024;-73
2020/12/02 06:31:05;;;;;;;20.77;9.07;;;3.50;87.20;;;;;;5093220;28;20039;-73
2020/12/02 06:33:36;;;;;;;21.13;9.47;;;3.50;87.10;;;;;;5092523;28;20028;-73
2020/12/02 06:36:14;;;;;;;23.23;9.67;;;3.50;87.30;;;;;;5093142;28;20028;-73
2020/12/02 06:38:39;;;;;;;21.60;9.50;;;3.50;87.10;;;;;;5093490;28;20031;-73
2020/12/02 06:41:27;;;;;;;20.83;9.57;;;3.50;87.40;;;;;;5094219;28;20036;-74
2020/12/02 06:44:00;;;;;;;19.40;8.93;;;3.50;87.30;;;;;;5079783;28;20013;-73
2020/12/02 06:46:59;;;;;;;19.53;9.17;;;3.50;86.90;;;;;;5091960;28;20031;-74
2020/12/02 06:49:28;;;;;;;22.80;10.23;;;3.50;87.10;;;;;;5092167;28;20036;-74
2020/12/02 06:52:00;;;;;;;19.67;9.20;;;3.50;87.00;;;;;;5093943;28;20032;-73
2020/12/02 06:54:30;;;;;;;19.08;8.65;;;3.50;86.90;;;;;;5091691;28;20093;-73
2020/12/02 06:57:21;;;;;;;20.00;9.43;;;3.50;86.80;;;;;;5092654;28;20028;-72
2020/12/02 06:59:49;;;;;;;18.10;8.77;;;3.50;86.80;;;;;;5076671;28;20028;-72
2020/12/02 07:02:39;;;;;;;19.87;9.73;;;3.60;86.90;;;;;;5092499;28;20081;-73
2020/12/02 07:05:10;;;;;;;18.37;8.80;;;3.50;86.80;;;;;;5082406;28;20111;-73
2020/12/02 07:07:35;;;;;;;19.63;8.97;;;3.50;86.80;;;;;;5091809;28;20020;-73
2020/12/02 07:10:01;;;;;;;17.57;8.67;;;3.50;86.80;;;;;;5092468;28;20028;-73
2020/12/02 07:12:30;;;;;;;17.80;8.40;;;3.50;86.90;;;;;;5092691;28;20028;-74
2020/12/02 07:15:00;;;;;;;20.00;9.20;;;3.50;87.10;;;;;;5093726;28;20016;-73
2020/12/02 07:17:26;;;;;;;19.23;9.00;;;3.50;87.00;;;;;;5091702;28;20032;-73
2020/12/02 07:19:51;;;;;;;18.90;8.97;;;3.50;86.80;;;;;;5092007;28;20036;-74
2020/12/02 07:22:33;;;;;;;19.93;9.53;;;3.50;86.70;;;;;;5092914;28;20481;-74
2020/12/02 07:25:01;;;;;;;17.90;8.25;;;3.50;86.80;;;;;;5092196;28;20377;-74
2020/12/02 07:27:27;;;;;;;21.07;9.33;;;3.50;86.80;;;;;;5091318;28;20024;-72
2020/12/02 07:30:00;;;;;;;17.80;8.97;;;3.40;86.90;;;;;;5093253;28;20384;-73
2020/12/02 07:32:26;;;;;;;18.83;8.77;;;3.50;86.90;;;;;;5091137;28;20481;-73
2020/12/02 07:35:04;;;;;;;18.53;8.93;;;3.50;87.00;;;;;;5091832;28;20377;-73
2020/12/02 07:37:30;;;;;;;21.77;9.83;;;3.50;86.70;;;;;;5092153;28;20024;-74
2020/12/02 07:39:59;;;;;;;22.33;9.87;;;3.50;86.80;;;;;;5093060;28;20157;-73
2020/12/02 07:42:37;;;;;;;18.00;8.50;;;3.50;86.90;;;;;;5091131;28;20030;-74
2020/12/02 07:45:15;;;;;;;19.80;8.33;;;3.50;86.80;;;;;;5091717;28;20036;-73
2020/12/02 07:47:53;;;;;;;20.13;8.93;;;3.50;86.70;;;;;;5074838;28;20020;-73
2020/12/02 07:50:32;;;;;;;21.80;9.27;;;3.40;86.60;;;;;;5091232;28;20173;-73
2020/12/02 07:53:19;;;;;;;20.53;9.73;;;3.40;86.30;;;;;;5091611;28;20465;-74
2020/12/02 07:55:49;;;;;;;22.80;9.13;;;3.40;86.70;;;;;;5076885;28;20051;-73
2020/12/02 07:58:25;;;;;;;22.37;10.33;;;3.40;86.50;;;;;;5091411;28;20035;-74
2020/12/02 08:00:50;;;;;;;18.43;8.60;;;3.50;86.40;;;;;;5091286;28;20469;-74
2020/12/02 08:03:38;;;;;;;19.33;9.13;;;3.50;86.50;;;;;;5092605;28;20066;-76
2020/12/02 08:06:17;;;;;;;20.50;9.37;;;3.50;86.40;;;;;;5090508;28;20024;-74
2020/12/02 08:08:43;;;;;;;23.93;10.33;;;3.50;86.30;;;;;;5091357;28;20056;-74
2020/12/02 08:11:14;;;;;;;21.50;9.70;;;3.50;86.30;;;;;;5100018;28;20027;-73
2020/12/02 08:14:17;;;;;;;26.67;11.90;;;3.50;86.30;;;;;;5074359;28;20020;-73
2020/12/02 08:16:44;;;;;;;20.43;9.60;;;3.50;86.00;;;;;;5081275;28;20039;-73
2020/12/02 08:19:11;;;;;;;21.37;10.00;;;3.50;85.90;;;;;;5090656;28;20370;-73
2020/12/02 08:21:39;;;;;;;24.73;10.37;;;3.50;85.90;;;;;;5092665;28;20145;-74
2020/12/02 08:24:25;;;;;;;22.90;10.17;;;3.50;86.00;;;;;;5091101;28;20024;-74
2020/12/02 08:26:52;;;;;;;24.53;10.83;;;3.50;86.20;;;;;;5091098;28;20052;-74
2020/12/02 08:29:24;;;;;;;21.87;10.10;;;3.60;86.10;;;;;;5090438;28;20024;-74
2020/12/02 08:32:14;;;;;;;21.88;10.38;;;3.50;86.00;;;;;;5092403;28;20050;-74
2020/12/02 08:34:40;;;;;;;27.23;11.03;;;3.50;86.30;;;;;;5090320;28;20063;-74
2020/12/02 08:37:20;;;;;;;21.67;10.03;;;3.60;86.30;;;;;;5091983;28;20063;-73
2020/12/02 08:39:52;;;;;;;24.10;10.23;;;3.70;86.10;;;;;;5077031;28;20089;-73
2020/12/02 08:42:30;;;;;;;21.50;9.95;;;3.60;85.80;;;;;;5090342;28;20032;-74
2020/12/02 08:45:16;;;;;;;22.73;9.93;;;3.60;85.60;;;;;;5092178;28;20131;-74
2020/12/02 08:47:42;;;;;;;20.43;10.00;;;3.60;85.60;;;;;;5074879;28;20024;-74
2020/12/02 08:50:26;;;;;;;22.07;10.03;;;3.60;85.60;;;;;;5092231;28;20499;-74
2020/12/02 08:52:54;;;;;;;27.83;10.43;;;3.60;85.50;;;;;;5092371;28;20089;-74
2020/12/02 08:55:21;;;;;;;23.40;10.17;;;3.70;85.50;;;;;;5091776;28;20473;-73
2020/12/02 08:57:47;;;;;;;22.67;10.63;;;3.70;85.20;;;;;;5092143;28;20115;-73
2020/12/02 09:00:17;;;;;;;20.27;9.20;;;3.70;85.20;;;;;;5090629;28;20123;-73
2020/12/02 09:02:42;;;;;;;21.50;9.63;;;3.70;85.30;;;;;;5093485;28;20057;-73
2020/12/02 09:05:08;;;;;;;23.50;11.07;;;3.70;85.10;;;;;;5095745;28;20024;-74
2020/12/02 09:07:34;;;;;;;22.87;9.97;;;3.70;85.00;;;;;;5091193;28;20508;-74
2020/12/02 09:10:00;;;;;;;25.77;10.53;;;3.80;84.80;;;;;;5090581;28;20028;-74
2020/12/02 09:12:26;;;;;;;24.90;11.27;;;3.80;84.70;;;;;;5099143;28;20361;-74
2020/12/02 09:14:52;;;;;;;26.63;10.50;;;3.80;84.50;;;;;;5098459;28;20020;-74
2020/12/02 09:17:17;;;;;;;28.73;11.10;;;3.80;84.50;;;;;;5100295;28;20065;-74
2020/12/02 09:19:43;;;;;;;22.70;10.13;;;3.80;84.30;;;;;;5103379;28;20528;-73
2020/12/02 09:22:09;;;;;;;25.57;10.97;;;3.70;83.90;;;;;;5101999;28;20047;-74
2020/12/02 09:24:35;;;;;;;23.57;10.50;;;3.80;84.10;;;;;;5103114;28;20530;-73
2020/12/02 09:27:00;;;;;;;22.00;10.10;;;3.70;84.20;;;;;;5095636;28;20030;-73
2020/12/02 09:29:26;;;;;;;23.50;10.60;;;3.70;84.30;;;;;;5094791;28;20396;-74
2020/12/02 09:31:52;;;;;;;20.80;10.03;;;3.80;84.50;;;;;;5094309;28;20020;-73
2020/12/02 09:34:18;;;;;;;22.20;9.67;;;3.80;84.20;;;;;;5095175;28;20027;-75
2020/12/02 09:36:46;;;;;;;25.03;10.80;;;3.80;84.00;;;;;;5094101;28;20077;-73
2020/12/02 09:39:12;;;;;;;23.53;10.00;;;3.80;83.80;;;;;;5103028;28;20460;-73
2020/12/02 09:41:47;;;;;;;23.43;10.03;;;3.90;84.00;;;;;;5085039;28;20024;-72
2020/12/02 09:44:30;;;;;;;19.93;10.00;;;3.90;83.90;;;;;;5093671;28;20028;-72
2020/12/02 09:47:04;;;;;;;21.23;9.43;;;3.90;83.70;;;;;;5094053;28;20035;-72
2020/12/02 09:49:31;;;;;;;22.57;10.40;;;3.90;83.70;;;;;;5092929;28;20028;-72
2020/12/02 09:52:06;;;;;;;22.90;10.20;;;3.80;83.40;;;;;;5093704;28;20084;-72
2020/12/02 09:54:39;;;;;;;26.97;10.53;;;3.80;84.00;;;;;;5095477;28;20396;-72
2020/12/02 09:57:29;;;;;;;23.23;9.97;;;3.90;84.10;;;;;;5102369;28;20111;-72
2020/12/02 09:59:56;;;;;;;22.27;9.77;;;3.90;84.30;;;;;;5101828;28;20032;-72
2020/12/02 10:02:36;;;;;;;19.80;9.30;;;4.00;84.10;;;;;;5102990;27;20035;-72
2020/12/02 10:05:08;;;;;;;24.93;10.10;;;4.00;83.70;;;;;;5100903;28;20024;-72
2020/12/02 10:07:53;;;;;;;;;;;4.00;83.60;;;;;;5097450;28;20039;-72
2020/12/02 10:10:27;;;;;;;21.17;9.53;;;4.00;83.60;;;;;;5097063;28;19914;-77
2020/12/02 10:13:14;;;;;;;21.00;9.13;;;4.00;83.90;;;;;;5097765;28;20452;-75
2020/12/02 10:15:59;;;;;;;24.87;10.93;;;4.00;83.80;;;;;;5093679;28;20028;-75
2020/12/02 10:18:33;;;;;;;21.83;10.13;;;4.00;83.90;;;;;;5095081;28;20081;-74
2020/12/02 10:21:27;;;;;;;24.20;9.87;;;4.10;84.00;;;;;;5094048;28;20056;-71
2020/12/02 10:24:05;;;;;;;21.97;10.07;;;4.10;83.80;;;;;;5076593;28;20031;-74
2020/12/02 10:26:42;;;;;;;23.53;9.97;;;4.10;83.90;;;;;;5092650;28;20028;-72
2020/12/02 10:29:30;;;;;;;23.47;11.13;;;4.10;83.50;;;;;;5092798;28;20023;-81
2020/12/02 10:32:10;;;;;;;20.87;9.97;;;4.10;82.90;;;;;;5086857;28;20023;-74
2020/12/02 10:34:41;;;;;;;21.77;10.80;;;4.00;82.80;;;;;;5093869;28;20024;-74
2020/12/02 10:37:23;;;;;;;22.57;10.37;;;4.10;83.20;;;;;;5092760;28;20122;-74
2020/12/02 10:39:49;;;;;;;21.13;10.00;;;4.10;83.30;;;;;;5077833;28;20047;-74
2020/12/02 10:42:38;;;;;;;22.23;10.23;;;4.10;83.20;;;;;;5093208;28;20461;-74
2020/12/02 10:45:13;;;;;;;20.63;9.63;;;4.10;82.90;;;;;;5092821;28;20569;-74
2020/12/02 10:48:00;;;;;;;21.27;9.80;;;4.10;82.80;;;;;;5077098;28;20023;-74
2020/12/02 10:50:29;;;;;;;23.20;10.87;;;4.20;82.60;;;;;;5093470;28;20058;-75
2020/12/02 10:52:56;;;;;;;25.37;10.40;;;4.10;82.60;;;;;;5092776;28;20082;-75
2020/12/02 10:55:26;;;;;;;20.87;10.50;;;4.20;82.70;;;;;;5092178;28;20465;-73
2020/12/02 10:58:08;;;;;;;22.57;9.73;;;4.20;82.70;;;;;;5092698;28;20354;-74
2020/12/02 11:00:34;;;;;;;21.50;10.10;;;4.20;82.30;;;;;;5091825;28;20162;-74
2020/12/02 11:03:15;;;;;;;23.10;10.10;;;4.20;82.40;;;;;;5092532;28;20513;-75
2020/12/02 11:05:47;;;;;;;22.40;10.67;;;4.20;82.20;;;;;;5087637;28;20048;-74
2020/12/02 11:08:31;;;;;;;22.25;10.05;;;4.20;82.10;;;;;;5092608;28;20028;-74
2020/12/02 11:11:22;;;;;;;24.10;10.90;;;4.20;82.00;;;;;;5092508;28;20468;-74
2020/12/02 11:14:28;;;;;;;23.43;10.17;;;4.10;82.00;;;;;;5077356;28;20054;-74
2020/12/02 11:17:13;;;;;;;22.43;10.27;;;4.10;81.80;;;;;;5075073;28;20036;-74
2020/12/02 11:20:12;;;;;;;22.77;10.27;;;4.20;82.40;;;;;;5074947;28;20119;-74
2020/12/02 11:22:44;;;;;;;21.43;9.97;;;4.20;81.90;;;;;;5091925;28;20055;-74
2020/12/02 11:25:26;;;;;;;22.67;10.47;;;4.20;82.00;;;;;;5092389;28;20115;-73
2020/12/02 11:27:51;;;;;;;27.90;11.33;;;4.20;82.30;;;;;;5078554;28;20016;-73
2020/12/02 11:30:31;;;;;;;24.80;10.83;;;4.20;82.40;;;;;;5092204;28;20522;-75
2020/12/02 11:33:14;;;;;;;24.50;10.47;;;4.20;82.30;;;;;;5086320;28;20040;-71
2020/12/02 11:36:06;;;;;;;26.37;10.60;;;4.30;82.00;;;;;;5091918;28;20055;-72
2020/12/02 11:38:46;;;;;;;24.03;10.67;;;4.30;81.80;;;;;;5089236;28;20036;-72
2020/12/02 11:41:55;;;;;;;22.83;10.10;;;4.30;81.90;;;;;;5089319;28;20089;-72
2020/12/02 11:44:32;;;;;;;22.13;9.63;;;4.30;81.60;;;;;;5089479;28;20070;-73
2020/12/02 11:47:27;;;;;;;22.50;10.97;;;4.30;81.70;;;;;;5092388;28;20102;-74
2020/12/02 11:49:56;;;;;;;24.93;10.33;;;4.30;81.50;;;;;;5077047;28;20035;-74
2020/12/02 11:52:52;;;;;;;24.33;10.30;;;4.30;81.50;;;;;;5091048;28;20036;-74
2020/12/02 11:55:19;;;;;;;23.13;10.13;;;4.30;81.00;;;;;;5066697;28;20039;-75
2020/12/02 11:57:55;;;;;;;21.37;10.33;;;4.40;81.00;;;;;;5091944;28;20024;-72
2020/12/02 12:00:21;;;;;;;23.40;10.20;;;4.40;81.00;;;;;;5090487;28;20121;-72
2020/12/02 12:03:33;;;;;;;23.27;10.23;;;4.40;81.00;;;;;;5090505;28;20448;-73
2020/12/02 12:06:20;;;;;;;21.43;9.20;;;4.30;80.80;;;;;;5004280;28;20109;-72
2020/12/02 12:09:17;;;;;;;25.53;11.27;;;4.30;80.70;;;;;;5086860;28;20028;-73
2020/12/02 12:11:43;;;;;;;23.80;9.90;;;4.30;80.70;;;;;;5085167;28;20039;-72
2020/12/02 12:14:38;;;;;;;24.37;9.73;;;4.40;80.90;;;;;;5091281;28;20093;-73
2020/12/02 12:17:19;;;;;;;22.00;9.97;;;4.30;80.60;;;;;;5090607;28;20377;-72
2020/12/02 12:19:45;;;;;;;25.13;10.93;;;4.30;81.00;;;;;;5086658;28;20036;-74
2020/12/02 12:22:16;;;;;;;20.87;9.73;;;4.30;80.80;;;;;;5090324;28;20050;-74
2020/12/02 12:24:45;;;;;;;23.50;10.70;;;4.30;81.00;;;;;;5090569;28;20025;-73
2020/12/02 12:27:12;;;;;;;25.97;10.47;;;4.30;80.90;;;;;;5092491;28;20464;-73
2020/12/02 12:29:38;;;;;;;25.80;11.43;;;4.20;81.30;;;;;;5075348;28;20051;-73
2020/12/02 12:32:46;;;;;;;24.10;10.43;;;4.30;81.40;;;;;;5089272;28;20056;-73
2020/12/02 12:35:22;;;;;;;21.40;9.50;;;4.30;81.30;;;;;;5083641;28;20043;-72
2020/12/02 12:38:19;;;;;;;26.90;11.23;;;4.30;81.00;;;;;;5091088;28;20020;-72
2020/12/02 12:40:54;;;;;;;24.40;10.60;;;4.30;81.10;;;;;;5092156;28;20032;-71
2020/12/02 12:43:24;;;;;;;23.03;10.37;;;4.30;80.90;;;;;;5092152;28;20461;-72
2020/12/02 12:45:57;;;;;;;26.07;10.33;;;4.30;80.50;;;;;;5092228;28;20016;-72
2020/12/02 12:48:23;;;;;;;30.50;10.90;;;4.30;80.70;;;;;;5089817;28;20546;-72
2020/12/02 12:50:52;;;;;;;25.60;10.40;;;4.30;80.90;;;;;;5090542;28;20036;-71
2020/12/02 12:53:20;;;;;;;26.07;10.50;;;4.30;80.80;;;;;;5093360;28;20135;-76
2020/12/02 12:55:46;;;;;;;25.50;11.17;;;4.30;80.50;;;;;;5092650;28;20038;-73
2020/12/02 12:58:14;;;;;;;24.40;10.90;;;4.30;80.40;;;;;;5094319;28;20122;-73
2020/12/02 13:00:48;;;;;;;23.17;10.83;;;4.30;80.10;;;;;;5094530;28;20051;-72
2020/12/02 13:03:24;;;;;;;26.00;10.87;;;4.30;80.90;;;;;;5095057;28;20034;-72
2020/12/02 13:06:14;;;;;;;23.93;10.57;;;4.30;80.90;;;;;;5095434;28;20031;-72
2020/12/02 13:09:16;;;;;;;27.40;10.80;;;4.30;80.50;;;;;;5094654;28;20499;-72
2020/12/02 13:12:09;;;;;;;24.52;10.15;;;4.30;80.30;;;;;;5078052;28;20025;-73
2020/12/02 13:14:58;;;;;;;26.00;11.07;;;4.20;80.20;;;;;;5094042;28;20024;-71